createdAt,value
2023-04-25T00:14:51.464Z,94176.09
2023-04-25T00:17:50.758Z,94178.47
2023-04-25T00:20:53.964Z,94179.84
2023-04-25T00:23:55.857Z,94168.72
2023-04-25T00:26:55.350Z,94169.53
2023-04-25T00:33:26.790Z,94174.81
2023-04-25T00:36:14.310Z,94174.56
2023-04-25T00:39:13.218Z,94170.09
2023-04-25T00:45:46.666Z,94161.84
2023-04-25T00:48:52.613Z,94155.50
2023-04-25T00:52:02.964Z,94167.13
2023-04-25T00:58:12.685Z,94162.06
2023-04-25T01:01:03.884Z,94164.72
2023-04-25T01:03:52.385Z,94156.25
2023-04-25T01:06:54.983Z,94152.78
2023-04-25T01:09:45.847Z,94145.91
2023-04-25T01:12:44.090Z,94147.50
2023-04-25T01:15:36.401Z,94146.13
2023-04-25T01:18:25.313Z,94143.75
2023-04-25T01:22:03.501Z,94141.09
2023-04-25T01:25:07.000Z,94142.38
2023-04-25T01:27:49.989Z,94150.31
2023-04-25T01:30:33.942Z,94138.94
2023-04-25T01:33:16.201Z,94143.41
2023-04-25T01:36:23.619Z,94139.97
2023-04-25T01:39:15.969Z,94147.88
2023-04-25T01:42:00.160Z,94139.41
2023-04-25T01:44:46.152Z,94142.06
2023-04-25T01:47:33.486Z,94142.84
2023-04-25T01:50:38.426Z,94144.13
2023-04-25T02:20:58.760Z,94141.91
2023-04-25T02:25:00.932Z,94143.72
2023-04-25T02:28:02.745Z,94142.94
2023-04-25T02:31:33.343Z,94131.56
2023-04-25T02:34:47.228Z,94131.56
2023-04-25T02:43:55.397Z,94133.31
2023-04-25T03:05:01.117Z,94121.19
2023-04-25T03:12:49.078Z,94128.53
2023-04-25T03:16:52.786Z,94122.13
2023-04-25T03:23:49.515Z,94117.66
2023-04-25T03:33:31.867Z,94117.09
2023-04-25T03:36:15.308Z,94114.69
2023-04-25T03:39:15.609Z,94111.00
2023-04-25T03:42:13.338Z,94112.03
2023-04-25T03:45:13.177Z,94105.75
2023-04-25T03:47:50.651Z,94115.50
2023-04-25T03:54:03.078Z,94109.41
2023-04-25T03:56:36.638Z,94098.53
2023-04-25T03:59:15.731Z,94103.00
